createdAt,value
2018-12-21T00:02:55.629Z,9.35
2018-12-21T00:08:08.765Z,9.36
2018-12-21T00:13:20.980Z,9.34
2018-12-21T00:18:32.251Z,9.34
2018-12-21T00:23:46.314Z,9.41
2018-12-21T00:28:58.469Z,9.41
2018-12-21T00:34:27.600Z,9.40
2018-12-21T00:37:02.364Z,9.35
2018-12-21T00:42:30.768Z,9.39
2018-12-21T00:47:55.130Z,9.39
2018-12-21T00:53:06.265Z,9.43
2018-12-21T00:58:17.414Z,9.43
2018-12-21T01:03:31.983Z,9.51
2018-12-21T01:08:43.257Z,9.51
2018-12-21T01:13:57.454Z,9.49
2018-12-21T01:19:08.706Z,9.51
2018-12-21T01:24:20.855Z,9.49
2018-12-21T01:29:31.804Z,9.53
2018-12-21T01:32:01.165Z,9.53
2018-12-21T01:37:13.258Z,9.54
2018-12-21T01:42:24.406Z,9.57
2018-12-21T01:47:36.414Z,9.58
2018-12-21T01:52:48.374Z,9.62
2018-12-21T01:58:00.924Z,9.64
2018-12-21T02:03:13.926Z,9.63
2018-12-21T02:08:25.404Z,9.65
2018-12-21T02:13:37.774Z,9.69
2018-12-21T02:18:49.058Z,9.63
2018-12-21T02:24:03.948Z,9.60
2018-12-21T02:29:15.051Z,9.52
2018-12-21T02:34:27.259Z,9.36
2018-12-21T02:39:38.378Z,9.34
2018-12-21T02:44:50.361Z,9.33
2018-12-21T02:50:01.518Z,9.32
2018-12-21T02:55:13.642Z,9.43
2018-12-21T03:00:24.745Z,9.42
2018-12-21T03:05:36.731Z,9.30
2018-12-21T03:10:47.775Z,9.31
2018-12-21T03:15:59.822Z,9.27
2018-12-21T03:21:10.755Z,9.11
2018-12-21T03:26:22.714Z,9.04
2018-12-21T03:31:33.992Z,9.01
2018-12-21T03:36:45.979Z,8.97
2018-12-21T03:41:57.230Z,8.95
2018-12-21T03:47:09.232Z,9.09
2018-12-21T03:52:24.213Z,9.19
2018-12-21T03:57:34.090Z,9.28
2018-12-21T04:02:45.102Z,9.32
2018-12-21T04:07:57.108Z,9.32
2018-12-21T04:13:08.091Z,9.39
2018-12-21T04:18:19.035Z,9.39
2018-12-21T04:23:31.064Z,9.18
2018-12-21T04:28:38.582Z,8.89
2018-12-21T04:33:53.386Z,8.77
2018-12-21T04:39:07.480Z,8.71
2018-12-21T04:41:37.106Z,8.68
2018-12-21T04:46:49.050Z,8.52
2018-12-21T04:52:00.024Z,8.44
2018-12-21T04:57:12.055Z,8.37
2018-12-21T05:02:23.213Z,8.34
2018-12-21T05:07:35.364Z,8.30
2018-12-21T05:12:46.774Z,8.31
2018-12-21T05:15:16.226Z,8.32
2018-12-21T05:20:27.133Z,8.31
2018-12-21T05:25:39.258Z,8.34
2018-12-21T05:30:52.242Z,8.33
2018-12-21T05:36:04.422Z,8.27
2018-12-21T05:41:47.112Z,8.29
2018-12-21T05:46:58.205Z,8.32
2018-12-21T05:52:17.894Z,8.25
2018-12-21T05:57:29.946Z,8.27
2018-12-21T06:02:42.028Z,8.28
2018-12-21T06:07:54.402Z,8.26
2018-12-21T06:13:05.537Z,8.27
2018-12-21T06:18:18.621Z,8.27
2018-12-21T06:23:30.755Z,8.24
2018-12-21T06:28:41.792Z,8.26
2018-12-21T06:31:11.134Z,8.28
2018-12-21T06:36:23.082Z,8.24
2018-12-21T06:41:34.071Z,8.27
2018-12-21T06:46:46.193Z,8.30
2018-12-21T06:51:57.152Z,8.31
2018-12-21T06:57:09.330Z,8.37
2018-12-21T07:02:20.371Z,8.36
2018-12-21T07:07:32.525Z,8.46
2018-12-21T07:12:43.464Z,8.53
2018-12-21T07:17:55.409Z,8.56
2018-12-21T07:23:06.354Z,8.54
2018-12-21T07:28:18.431Z,8.67
2018-12-21T07:33:30.394Z,8.75
2018-12-21T07:38:41.645Z,8.79
2018-12-21T07:41:11.010Z,8.78
2018-12-21T07:46:23.060Z,8.81
2018-12-21T07:51:33.957Z,8.85
2018-12-21T07:56:45.975Z,8.87
2018-12-21T08:01:56.959Z,8.94
2018-12-21T08:07:08.973Z,9.01
2018-12-21T08:12:20.030Z,8.94
2018-12-21T08:17:32.199Z,8.99
2018-12-21T08:22:39.711Z,8.93
2018-12-21T08:27:51.653Z,8.94
2018-12-21T08:33:02.698Z,8.92
2018-12-21T08:38:13.817Z,8.90
2018-12-21T08:40:43.407Z,8.92
2018-12-21T08:45:55.469Z,8.91
2018-12-21T08:51:06.807Z,8.92
2018-12-21T08:56:18.964Z,8.98
2018-12-21T09:01:30.070Z,9.02
2018-12-21T09:06:42.138Z,9.00
2018-12-21T09:11:53.164Z,8.96
2018-12-21T09:17:05.422Z,8.95
2018-12-21T09:22:16.524Z,8.95
2018-12-21T09:24:46.017Z,8.99
2018-12-21T09:29:57.030Z,9.01
2018-12-21T09:35:09.335Z,9.02
2018-12-21T09:40:20.634Z,9.15
2018-12-21T09:45:32.845Z,9.19
2018-12-21T09:50:43.818Z,9.26
2018-12-21T09:55:55.921Z,9.35
2018-12-21T10:01:07.350Z,9.41
2018-12-21T10:06:19.294Z,9.54
2018-12-21T10:11:31.338Z,9.67
2018-12-21T10:16:43.408Z,9.82
2018-12-21T10:21:54.393Z,9.99
2018-12-21T10:27:06.639Z,10.17
2018-12-21T10:32:17.756Z,10.27
2018-12-21T10:37:29.829Z,10.40
2018-12-21T10:42:40.932Z,10.56
2018-12-21T10:47:52.944Z,10.77
2018-12-21T10:53:04.067Z,11.37
2018-12-21T10:58:16.067Z,11.66
2018-12-21T11:03:28.125Z,11.83
2018-12-21T11:08:39.099Z,12.01
2018-12-21T11:13:51.089Z,12.15
2018-12-21T11:19:02.288Z,12.26
2018-12-21T11:24:14.314Z,12.45
2018-12-21T11:29:27.462Z,12.57
2018-12-21T11:34:39.531Z,12.72
2018-12-21T11:39:51.632Z,12.83
2018-12-21T11:45:03.939Z,13.00
2018-12-21T11:50:15.263Z,13.15
2018-12-21T11:55:29.395Z,13.21
2018-12-21T12:00:40.406Z,13.30
2018-12-21T12:05:52.651Z,13.12
2018-12-21T12:11:03.733Z,13.10
2018-12-21T12:16:15.822Z,13.15
2018-12-21T12:21:26.857Z,13.30
2018-12-21T12:26:44.456Z,13.39
2018-12-21T12:31:52.007Z,13.41
2018-12-21T12:37:04.010Z,13.39
2018-12-21T12:42:15.803Z,13.20
2018-12-21T12:47:27.843Z,13.08
2018-12-21T12:52:40.768Z,12.98
2018-12-21T12:57:54.650Z,12.91
2018-12-21T13:03:06.569Z,12.87
2018-12-21T13:08:17.674Z,12.88
2018-12-21T13:13:29.826Z,13.04
2018-12-21T13:18:40.774Z,13.18
2018-12-21T13:23:51.775Z,13.22
2018-12-21T13:29:02.751Z,13.23
2018-12-21T13:34:14.872Z,13.29
2018-12-21T13:39:27.998Z,13.28
2018-12-21T13:44:39.901Z,13.17
2018-12-21T13:49:52.906Z,13.27
2018-12-21T13:55:07.146Z,13.23
2018-12-21T14:00:18.055Z,13.23
2018-12-21T14:05:32.015Z,13.26
2018-12-21T14:10:42.993Z,13.07
2018-12-21T14:15:54.236Z,13.09
2018-12-21T14:21:05.375Z,13.09
2018-12-21T14:23:34.770Z,12.99
2018-12-21T14:28:46.843Z,13.01
2018-12-21T14:33:58.771Z,13.04
2018-12-21T14:39:11.085Z,13.01
2018-12-21T14:44:25.543Z,12.98
2018-12-21T14:49:36.647Z,12.84
2018-12-21T14:54:48.715Z,12.91
2018-12-21T15:00:01.830Z,12.96
2018-12-21T15:05:14.003Z,12.97
2018-12-21T15:10:24.981Z,12.93
2018-12-21T15:15:39.198Z,12.87
2018-12-21T15:20:46.844Z,12.87
2018-12-21T15:23:16.222Z,12.95
2018-12-21T15:28:27.351Z,12.79
2018-12-21T15:30:56.820Z,12.77
2018-12-21T15:33:26.379Z,12.79
2018-12-21T15:35:55.984Z,12.71
2018-12-21T15:38:25.365Z,12.73
2018-12-21T15:40:54.778Z,12.69
2018-12-21T15:43:24.185Z,12.68
2018-12-21T15:45:53.610Z,12.64
2018-12-21T15:48:23.128Z,12.54
2018-12-21T15:50:52.769Z,12.63
2018-12-21T15:56:05.074Z,12.58
2018-12-21T16:01:16.255Z,12.80
2018-12-21T16:06:30.473Z,12.64
2018-12-21T16:11:41.822Z,12.63
2018-12-21T16:16:55.925Z,12.55
2018-12-21T16:22:07.043Z,12.43
2018-12-21T16:27:18.988Z,12.37
2018-12-21T16:32:29.950Z,12.33
2018-12-21T16:37:41.887Z,12.34
2018-12-21T16:42:56.114Z,12.38
2018-12-21T16:48:10.295Z,12.42
2018-12-21T16:50:39.978Z,12.43
2018-12-21T16:53:09.351Z,12.38
2018-12-21T16:58:20.258Z,12.36
2018-12-21T17:03:32.543Z,12.38
2018-12-21T17:08:44.246Z,12.25
2018-12-21T17:13:56.578Z,12.22
2018-12-21T17:19:15.225Z,12.19
2018-12-21T17:24:29.152Z,12.09
2018-12-21T17:29:40.434Z,12.06
2018-12-21T17:34:52.598Z,12.15
2018-12-21T17:40:04.364Z,12.09
2018-12-21T17:45:16.654Z,12.15
2018-12-21T17:50:24.821Z,12.17
2018-12-21T17:55:37.001Z,12.11
2018-12-21T18:00:48.134Z,12.14
2018-12-21T18:03:30.029Z,12.13
2018-12-21T18:08:41.032Z,12.11
2018-12-21T18:13:53.242Z,12.03
2018-12-21T18:19:04.136Z,12.04
2018-12-21T18:24:30.235Z,12.01
2018-12-21T18:29:43.509Z,11.99
2018-12-21T18:35:15.628Z,11.96
2018-12-21T18:40:39.689Z,12.03
2018-12-21T18:45:52.177Z,12.04
2018-12-21T18:51:04.547Z,11.99
2018-12-21T18:56:22.852Z,11.87
2018-12-21T19:01:34.401Z,11.88
2018-12-21T19:06:47.175Z,11.85
2018-12-21T19:11:58.489Z,11.87
2018-12-21T19:17:10.835Z,11.91
2018-12-21T19:22:22.169Z,11.90
2018-12-21T19:27:35.201Z,11.96
2018-12-21T19:32:48.589Z,11.97
2018-12-21T19:38:01.304Z,12.09
2018-12-21T19:43:12.515Z,12.11
2018-12-21T19:48:24.253Z,12.11
2018-12-21T19:53:38.846Z,12.09
2018-12-21T19:59:04.248Z,12.13
2018-12-21T20:04:16.591Z,12.14
2018-12-21T20:09:28.151Z,12.14
2018-12-21T20:14:40.427Z,12.09
2018-12-21T20:19:51.847Z,12.01
2018-12-21T20:25:04.582Z,12.01
2018-12-21T20:30:19.315Z,11.97
2018-12-21T20:35:31.881Z,11.93
2018-12-21T20:40:45.546Z,11.97
2018-12-21T20:45:57.558Z,11.89
2018-12-21T20:51:08.599Z,11.85
2018-12-21T20:53:37.947Z,11.78
2018-12-21T20:58:56.323Z,11.72
2018-12-21T21:04:08.654Z,11.71
2018-12-21T21:09:19.505Z,11.62
2018-12-21T21:14:31.436Z,11.58
2018-12-21T21:19:41.107Z,11.55
2018-12-21T21:24:53.315Z,11.54
2018-12-21T21:30:05.328Z,11.55
2018-12-21T21:35:17.571Z,11.59
2018-12-21T21:40:29.570Z,11.61
2018-12-21T21:45:43.888Z,11.57
2018-12-21T21:50:56.071Z,11.60
2018-12-21T21:56:08.994Z,11.60
2018-12-21T22:01:20.688Z,11.62
2018-12-21T22:03:50.618Z,11.59
2018-12-21T22:09:04.171Z,11.56
2018-12-21T22:11:33.884Z,11.61
2018-12-21T22:16:47.654Z,11.60
2018-12-21T22:21:59.431Z,11.54
2018-12-21T22:27:09.976Z,11.40
2018-12-21T22:32:21.505Z,11.29
2018-12-21T22:37:34.092Z,11.26
2018-12-21T22:42:46.274Z,11.20
2018-12-21T22:47:58.280Z,11.20
2018-12-21T22:53:09.197Z,11.18
2018-12-21T22:58:21.158Z,11.12
2018-12-21T23:03:33.210Z,11.13
2018-12-21T23:08:46.299Z,11.13
2018-12-21T23:13:58.349Z,11.21
2018-12-21T23:19:09.273Z,11.25
2018-12-21T23:24:21.202Z,11.20
2018-12-21T23:29:32.342Z,11.21
2018-12-21T23:32:01.663Z,11.19
2018-12-21T23:37:13.751Z,11.18
2018-12-21T23:42:24.810Z,11.21
2018-12-21T23:47:37.373Z,11.20
2018-12-21T23:52:49.344Z,11.15
2018-12-21T23:58:01.427Z,11.14
